createdAt,value
2016-03-26T00:00:04.779Z,0
2016-03-26T00:00:45.545Z,0
2016-03-26T00:02:11.284Z,0
2016-03-26T00:02:52.472Z,0
2016-03-26T00:03:45.631Z,0
2016-03-26T00:05:05.012Z,0
2016-03-26T00:05:45.731Z,0
2016-03-26T00:07:11.392Z,0
2016-03-26T00:07:45.705Z,0
2016-03-26T00:09:17.022Z,0
2016-03-26T00:09:51.991Z,0
2016-03-26T00:10:45.744Z,0
2016-03-26T00:11:45.903Z,0
2016-03-26T00:12:45.796Z,0
2016-03-26T00:13:46.455Z,0
2016-03-26T00:14:45.817Z,0
2016-03-26T00:15:46.397Z,0
2016-03-26T00:16:45.885Z,0
2016-03-26T00:17:45.872Z,0
2016-03-26T00:18:52.280Z,0
2016-03-26T00:19:46.518Z,0
2016-03-26T00:21:05.163Z,0
2016-03-26T00:21:46.538Z,0
2016-03-26T00:23:11.590Z,0
2016-03-26T00:23:45.981Z,0
2016-03-26T00:25:17.299Z,0
2016-03-26T00:25:52.237Z,0
2016-03-26T00:27:42.993Z,0
2016-03-26T00:27:55.555Z,0
2016-03-26T00:29:26.857Z,0
2016-03-26T00:30:01.859Z,0
2016-03-26T00:30:55.687Z,0
2016-03-26T00:32:08.334Z,0
2016-03-26T00:32:56.443Z,0
2016-03-26T00:33:56.242Z,0
2016-03-26T00:34:55.683Z,0
2016-03-26T00:35:56.295Z,0
2016-03-26T00:36:55.704Z,0
2016-03-26T00:37:55.816Z,0
2016-03-26T00:38:57.117Z,0
2016-03-26T00:39:56.337Z,0
2016-03-26T00:40:55.761Z,0
2016-03-26T00:41:55.784Z,0
2016-03-26T00:43:01.992Z,0
2016-03-26T00:43:56.461Z,0
2016-03-26T00:44:55.808Z,0
2016-03-26T00:45:55.889Z,0
2016-03-26T00:46:55.204Z,0
2016-03-26T00:47:55.909Z,0
2016-03-26T00:48:55.881Z,0
2016-03-26T00:50:08.636Z,0
2016-03-26T00:51:08.655Z,0
2016-03-26T00:51:58.952Z,0
2016-03-26T00:53:15.223Z,0
2016-03-26T00:53:55.958Z,0
2016-03-26T00:55:02.275Z,0
2016-03-26T00:56:02.340Z,0
2016-03-26T00:57:02.639Z,0
2016-03-26T00:58:59.111Z,0
2016-03-26T01:00:18.366Z,0
2016-03-26T01:01:05.416Z,0
2016-03-26T01:01:59.291Z,0
2016-03-26T01:02:59.778Z,0
2016-03-26T01:04:05.455Z,0
2016-03-26T01:04:59.424Z,0
2016-03-26T01:06:05.570Z,0
2016-03-26T01:06:59.008Z,0
2016-03-26T01:07:59.246Z,0
2016-03-26T01:08:59.279Z,0
2016-03-26T01:10:05.410Z,0
2016-03-26T01:10:59.316Z,0
2016-03-26T01:12:00.103Z,0
2016-03-26T01:12:59.338Z,0
2016-03-26T01:14:02.390Z,0
2016-03-26T01:14:59.358Z,0
2016-03-26T01:15:59.393Z,0
2016-03-26T01:16:59.646Z,0
2016-03-26T01:17:59.444Z,0
2016-03-26T01:18:59.650Z,0
2016-03-26T01:19:59.449Z,0
2016-03-26T01:21:00.752Z,0
2016-03-26T01:21:59.502Z,0
2016-03-26T01:23:02.523Z,0
2016-03-26T01:23:59.523Z,0
2016-03-26T01:25:02.575Z,0
2016-03-26T01:25:59.528Z,0
2016-03-26T01:26:59.547Z,0
2016-03-26T01:27:59.581Z,0
2016-03-26T01:28:59.598Z,0
2016-03-26T01:29:59.633Z,0
2016-03-26T01:30:59.620Z,0
2016-03-26T01:32:12.423Z,0
2016-03-26T01:33:12.408Z,0
2016-03-26T01:33:59.768Z,0
2016-03-26T01:34:59.694Z,0
2016-03-26T01:35:59.711Z,0
2016-03-26T01:36:59.730Z,0
2016-03-26T01:38:12.516Z,0
2016-03-26T01:39:00.378Z,0
2016-03-26T01:39:59.628Z,0
2016-03-26T01:40:59.802Z,0
2016-03-26T01:41:59.838Z,0
2016-03-26T01:42:59.793Z,0
2016-03-26T01:43:59.843Z,0
2016-03-26T01:45:01.286Z,0
2016-03-26T01:45:59.849Z,0
2016-03-26T01:46:59.882Z,0
2016-03-26T01:48:12.668Z,0
2016-03-26T01:49:12.640Z,0
2016-03-26T01:50:19.143Z,0
2016-03-26T01:51:00.002Z,0
2016-03-26T01:52:25.710Z,0
2016-03-26T01:52:59.976Z,0
2016-03-26T01:53:59.995Z,0
2016-03-26T01:54:59.997Z,0
2016-03-26T01:56:06.284Z,0
2016-03-26T01:57:00.676Z,0
2016-03-26T01:58:06.929Z,0
2016-03-26T01:59:00.086Z,0
2016-03-26T02:00:00.103Z,0
2016-03-26T02:01:06.423Z,0
2016-03-26T02:02:00.157Z,0
2016-03-26T02:03:00.315Z,0
2016-03-26T02:04:00.209Z,0
2016-03-26T02:05:06.417Z,0
2016-03-26T02:06:00.261Z,0
2016-03-26T02:07:19.375Z,0
2016-03-26T02:08:00.891Z,0
2016-03-26T02:09:19.475Z,0
2016-03-26T02:10:12.993Z,0
2016-03-26T02:11:06.527Z,0
2016-03-26T02:12:00.308Z,0
2016-03-26T02:13:19.470Z,0
2016-03-26T02:14:00.345Z,0
2016-03-26T02:15:19.522Z,0
2016-03-26T02:16:00.366Z,0
2016-03-26T02:17:06.622Z,0
2016-03-26T02:18:00.372Z,0
2016-03-26T02:19:06.658Z,0
2016-03-26T02:20:00.393Z,0
2016-03-26T02:21:00.442Z,0
2016-03-26T02:22:00.460Z,0
2016-03-26T02:23:00.463Z,0
2016-03-26T02:24:01.090Z,0
2016-03-26T02:25:00.468Z,0
2016-03-26T02:26:00.626Z,0
2016-03-26T02:27:00.504Z,0
2016-03-26T02:28:00.726Z,0
2016-03-26T02:29:00.573Z,0
2016-03-26T02:30:00.560Z,0
2016-03-26T02:31:00.595Z,0
2016-03-26T02:32:00.612Z,0
2016-03-26T02:33:02.131Z,0
2016-03-26T02:34:00.664Z,0
2016-03-26T02:35:00.636Z,0
2016-03-26T02:36:00.653Z,0
2016-03-26T02:37:00.547Z,0
2016-03-26T02:38:06.958Z,0
2016-03-26T02:39:00.708Z,0
2016-03-26T02:40:13.464Z,0
2016-03-26T02:41:00.886Z,0
2016-03-26T02:42:00.749Z,0
2016-03-26T02:43:00.766Z,0
2016-03-26T02:44:00.816Z,0
2016-03-26T02:45:00.866Z,0
2016-03-26T02:46:00.838Z,0
2016-03-26T02:47:00.840Z,0
2016-03-26T02:48:00.874Z,0
2016-03-26T02:49:01.486Z,0
2016-03-26T02:50:07.163Z,0
2016-03-26T02:51:02.319Z,0
2016-03-26T02:52:00.915Z,0
2016-03-26T02:53:00.935Z,0
2016-03-26T02:54:01.093Z,0
2016-03-26T02:55:00.971Z,0
2016-03-26T02:56:13.757Z,0
2016-03-26T02:57:02.414Z,0
2016-03-26T02:58:26.685Z,0
2016-03-26T02:59:13.797Z,0
2016-03-26T03:00:01.125Z,0
2016-03-26T03:01:01.081Z,0
2016-03-26T03:02:01.131Z,0
2016-03-26T03:03:13.839Z,0
2016-03-26T03:04:01.120Z,0
2016-03-26T03:05:58.126Z,0
2016-03-26T03:06:10.753Z,0
2016-03-26T03:07:10.694Z,0
2016-03-26T03:08:10.728Z,0
2016-03-26T03:09:16.995Z,0
2016-03-26T03:10:10.764Z,0
2016-03-26T03:11:10.766Z,0
2016-03-26T03:12:10.629Z,0
2016-03-26T03:13:12.194Z,0
2016-03-26T03:14:10.805Z,0
2016-03-26T03:15:10.886Z,0
2016-03-26T03:16:10.843Z,0
2016-03-26T03:17:10.908Z,0
2016-03-26T03:18:10.863Z,0
2016-03-26T03:19:10.897Z,0
2016-03-26T03:20:23.619Z,0
2016-03-26T03:21:10.949Z,0
2016-03-26T03:22:30.140Z,0
2016-03-26T03:23:10.987Z,0
2016-03-26T03:24:11.567Z,0
2016-03-26T03:25:10.992Z,0
2016-03-26T03:26:11.135Z,0
2016-03-26T03:27:11.028Z,0
2016-03-26T03:28:11.046Z,0
2016-03-26T03:29:11.081Z,0
2016-03-26T03:30:11.146Z,0
2016-03-26T03:31:12.508Z,0
2016-03-26T03:32:23.870Z,0
2016-03-26T03:33:30.325Z,0
2016-03-26T03:34:23.954Z,0
2016-03-26T03:35:11.145Z,0
2016-03-26T03:36:11.209Z,0
2016-03-26T03:37:11.790Z,0
2016-03-26T03:38:23.934Z,0
2016-03-26T03:39:11.233Z,0
2016-03-26T03:40:24.001Z,0
2016-03-26T03:41:12.129Z,0
2016-03-26T03:42:11.367Z,0
2016-03-26T03:43:11.353Z,0
2016-03-26T03:44:11.919Z,0
2016-03-26T03:45:11.436Z,0
2016-03-26T03:46:11.299Z,0
2016-03-26T03:47:11.332Z,0
2016-03-26T03:48:11.350Z,0
2016-03-26T03:49:11.400Z,0
2016-03-26T03:50:11.372Z,0
2016-03-26T03:51:11.452Z,0
2016-03-26T03:52:17.705Z,0
2016-03-26T03:53:24.193Z,0
2016-03-26T03:54:24.195Z,0
2016-03-26T03:55:37.026Z,0
2016-03-26T03:56:11.607Z,0
2016-03-26T03:57:42.796Z,0
2016-03-26T03:58:11.550Z,0
2016-03-26T03:59:11.537Z,0
2016-03-26T04:00:17.929Z,0
2016-03-26T04:01:11.558Z,0
2016-03-26T04:02:11.576Z,0
2016-03-26T04:03:12.219Z,0
2016-03-26T04:04:11.643Z,0
2016-03-26T04:05:13.256Z,0
2016-03-26T04:06:11.680Z,0
2016-03-26T04:07:11.652Z,0
2016-03-26T04:08:11.592Z,0
2016-03-26T04:09:11.688Z,0
2016-03-26T04:10:11.723Z,0
2016-03-26T04:11:11.912Z,0
2016-03-26T04:12:18.055Z,0
2016-03-26T04:13:13.200Z,0
2016-03-26T04:14:11.764Z,0
2016-03-26T04:15:11.908Z,0
2016-03-26T04:16:12.005Z,0
2016-03-26T04:17:24.585Z,0
2016-03-26T04:18:11.869Z,0
2016-03-26T04:19:11.856Z,0
2016-03-26T04:20:18.202Z,0
2016-03-26T04:21:11.893Z,0
2016-03-26T04:22:24.816Z,0
2016-03-26T04:23:18.211Z,0
2016-03-26T04:24:11.947Z,0
2016-03-26T04:25:11.950Z,0
2016-03-26T04:26:18.218Z,0
2016-03-26T04:27:11.987Z,0
2016-03-26T04:28:31.255Z,0
2016-03-26T04:29:12.023Z,0
2016-03-26T04:30:37.667Z,0
2016-03-26T04:31:12.076Z,0
2016-03-26T04:32:43.344Z,0
2016-03-26T04:33:12.081Z,0
2016-03-26T04:34:12.131Z,0
2016-03-26T04:35:12.071Z,0
2016-03-26T04:36:12.151Z,0
2016-03-26T04:37:12.139Z,0
2016-03-26T04:38:24.923Z,0
2016-03-26T04:39:12.159Z,0
2016-03-26T04:40:24.960Z,0
2016-03-26T04:41:12.822Z,0
2016-03-26T04:42:32.089Z,0
2016-03-26T04:43:12.420Z,0
2016-03-26T04:44:12.251Z,0
2016-03-26T04:45:25.019Z,0
2016-03-26T04:46:12.261Z,0
2016-03-26T04:47:12.326Z,0
2016-03-26T04:48:12.937Z,0
2016-03-26T04:49:12.363Z,0
2016-03-26T04:50:12.990Z,0
2016-03-26T04:51:25.117Z,0
2016-03-26T04:52:12.496Z,0
2016-03-26T04:53:12.389Z,0
2016-03-26T04:54:25.157Z,0
2016-03-26T04:55:25.191Z,0
2016-03-26T04:56:31.662Z,0
2016-03-26T04:57:12.430Z,0
2016-03-26T04:58:12.481Z,0
2016-03-26T04:59:12.483Z,0
2016-03-26T05:00:12.485Z,0
2016-03-26T05:01:12.583Z,0
2016-03-26T05:02:12.553Z,0
2016-03-26T05:03:12.541Z,0
2016-03-26T05:04:12.591Z,0
2016-03-26T05:05:25.327Z,0
2016-03-26T05:06:12.627Z,0
2016-03-26T05:08:19.022Z,0
2016-03-26T05:09:35.150Z,5
2016-03-26T05:10:35.138Z,5
2016-03-26T05:11:16.000Z,5
2016-03-26T05:13:13.161Z,5
2016-03-26T05:13:25.724Z,5
2016-03-26T05:15:16.307Z,5
2016-03-26T05:15:28.870Z,5
2016-03-26T05:16:28.903Z,5
2016-03-26T05:17:29.109Z,10
2016-03-26T05:18:28.924Z,20
2016-03-26T05:19:35.271Z,20
2016-03-26T05:20:28.977Z,25
2016-03-26T05:21:48.167Z,30
2016-03-26T05:22:29.201Z,30
2016-03-26T05:23:54.657Z,35
2016-03-26T05:24:29.019Z,35
2016-03-26T05:26:26.071Z,45
2016-03-26T05:26:38.634Z,45
2016-03-26T05:27:38.667Z,45
2016-03-26T05:28:38.656Z,50
2016-03-26T05:29:38.876Z,50
2016-03-26T05:30:51.441Z,50
2016-03-26T05:31:39.429Z,55
2016-03-26T05:32:38.712Z,55
2016-03-26T05:33:57.964Z,60
2016-03-26T05:34:39.061Z,60
2016-03-26T05:36:35.754Z,65
2016-03-26T05:37:07.535Z,70
2016-03-26T05:38:38.838Z,75
2016-03-26T05:39:17.075Z,75
2016-03-26T05:39:51.419Z,80
2016-03-26T05:41:48.455Z,85
2016-03-26T05:42:26.692Z,85
2016-03-26T05:43:01.348Z,85
2016-03-26T05:45:01.057Z,90
2016-03-26T05:46:01.076Z,95
2016-03-26T05:47:01.125Z,95
2016-03-26T05:48:07.409Z,100
2016-03-26T05:49:07.427Z,100
2016-03-26T05:50:13.745Z,105
2016-03-26T05:51:13.920Z,105
2016-03-26T05:52:58.246Z,110
2016-03-26T05:53:21.845Z,110
2016-03-26T05:55:02.371Z,115
2016-03-26T05:55:33.937Z,115
2016-03-26T05:57:06.352Z,120
2016-03-26T05:57:38.246Z,120
2016-03-26T05:58:44.623Z,125
2016-03-26T05:59:38.156Z,130
2016-03-26T06:00:19.034Z,135
2016-03-26T06:02:15.978Z,150
2016-03-26T06:02:47.837Z,150
2016-03-26T06:03:28.667Z,160
2016-03-26T06:04:29.217Z,195
2016-03-26T06:05:29.247Z,280
2016-03-26T06:06:41.412Z,375
2016-03-26T06:07:29.941Z,385
2016-03-26T06:08:28.701Z,410
2016-03-26T06:09:28.711Z,435
2016-03-26T06:10:29.303Z,450
2016-03-26T06:11:28.709Z,450
2016-03-26T06:12:30.145Z,470
2016-03-26T06:13:28.724Z,485
2016-03-26T06:14:41.488Z,500
2016-03-26T06:15:29.411Z,500
2016-03-26T06:16:48.006Z,525
2016-03-26T06:17:41.555Z,540
2016-03-26T06:19:50.277Z,575
2016-03-26T06:21:09.686Z,585
2016-03-26T06:21:44.063Z,585
2016-03-26T06:23:15.348Z,565
2016-03-26T06:23:50.348Z,575
2016-03-26T06:24:44.084Z,570
2016-03-26T06:25:45.540Z,590
2016-03-26T06:26:44.340Z,600
2016-03-26T06:28:34.674Z,585
2016-03-26T06:29:06.440Z,580
2016-03-26T06:30:39.382Z,555
2016-03-26T06:30:51.960Z,560
2016-03-26T06:31:52.136Z,600
2016-03-26T06:32:58.450Z,665
2016-03-26T06:34:04.796Z,685
2016-03-26T06:34:53.533Z,695
2016-03-26T06:36:11.521Z,720
2016-03-26T06:36:55.102Z,740
2016-03-26T06:38:23.388Z,750
2016-03-26T06:38:52.107Z,750
2016-03-26T06:39:52.140Z,765
2016-03-26T06:40:58.440Z,770
2016-03-26T06:41:58.443Z,770
2016-03-26T06:43:05.040Z,790
2016-03-26T06:44:04.948Z,785
2016-03-26T06:44:59.921Z,830
2016-03-26T06:46:45.784Z,815
2016-03-26T06:47:01.393Z,825
2016-03-26T06:48:56.196Z,805
2016-03-26T06:49:14.386Z,815
2016-03-26T06:50:09.354Z,825
2016-03-26T06:51:09.249Z,815
2016-03-26T06:52:09.282Z,810
2016-03-26T06:53:09.270Z,810
2016-03-26T06:54:09.303Z,820
2016-03-26T06:55:09.322Z,825
2016-03-26T06:56:09.371Z,830
2016-03-26T06:57:22.142Z,835
2016-03-26T06:58:09.423Z,835
2016-03-26T06:59:09.457Z,840
2016-03-26T07:00:09.461Z,870
2016-03-26T07:01:09.572Z,865
2016-03-26T07:02:09.512Z,870
2016-03-26T07:03:09.609Z,900
2016-03-26T07:04:09.533Z,900
2016-03-26T07:05:22.305Z,895
2016-03-26T07:06:09.586Z,895
2016-03-26T07:07:09.635Z,895
2016-03-26T07:08:09.669Z,855
2016-03-26T07:09:09.672Z,855
2016-03-26T07:10:09.706Z,905
2016-03-26T07:11:09.849Z,910
2016-03-26T07:12:10.007Z,900
2016-03-26T07:13:10.433Z,890
2016-03-26T07:14:10.013Z,885
2016-03-26T07:15:09.921Z,910
2016-03-26T07:16:22.615Z,895
2016-03-26T07:17:09.912Z,905
2016-03-26T07:18:35.590Z,910
2016-03-26T07:19:09.949Z,920
2016-03-26T07:21:11.923Z,930
2016-03-26T07:21:43.707Z,945
2016-03-26T07:22:24.537Z,950
2016-03-26T07:23:37.321Z,935
2016-03-26T07:24:24.606Z,940
2016-03-26T07:25:24.718Z,915
2016-03-26T07:26:24.673Z,945
2016-03-26T07:27:24.644Z,925
2016-03-26T07:28:37.445Z,890
2016-03-26T07:29:24.744Z,965
2016-03-26T07:30:24.746Z,930
2016-03-26T07:31:24.765Z,925
2016-03-26T07:32:24.783Z,975
2016-03-26T07:33:24.802Z,965
2016-03-26T07:34:24.914Z,935
2016-03-26T07:35:24.853Z,965
2016-03-26T07:36:24.981Z,980
2016-03-26T07:37:24.906Z,955
2016-03-26T07:38:25.033Z,995
2016-03-26T07:39:24.974Z,820
2016-03-26T07:40:25.055Z,530
2016-03-26T07:41:25.011Z,335
2016-03-26T07:42:25.029Z,320
2016-03-26T07:43:25.454Z,320
2016-03-26T07:44:37.863Z,305
2016-03-26T07:45:31.380Z,295
2016-03-26T07:46:44.382Z,290
2016-03-26T07:47:25.261Z,290
2016-03-26T07:48:25.185Z,285
2016-03-26T07:49:25.220Z,275
2016-03-26T07:50:25.457Z,275
2016-03-26T07:51:25.271Z,280
2016-03-26T07:52:25.290Z,280
2016-03-26T07:53:25.340Z,275
2016-03-26T07:54:25.358Z,280
2016-03-26T07:55:25.345Z,285
2016-03-26T07:56:25.379Z,275
2016-03-26T07:57:25.398Z,260
2016-03-26T07:58:25.557Z,255
2016-03-26T07:59:25.434Z,265
2016-03-26T08:00:25.687Z,260
2016-03-26T08:01:25.470Z,260
2016-03-26T08:02:25.597Z,265
2016-03-26T08:03:38.258Z,270
2016-03-26T08:04:25.510Z,275
2016-03-26T08:05:25.544Z,265
2016-03-26T08:06:26.984Z,265
2016-03-26T08:07:25.424Z,265
2016-03-26T08:08:25.614Z,265
2016-03-26T08:09:26.242Z,275
2016-03-26T08:10:25.010Z,270
2016-03-26T08:11:25.857Z,270
2016-03-26T08:12:25.703Z,275
2016-03-26T08:13:25.830Z,285
2016-03-26T08:14:25.724Z,275
2016-03-26T08:15:26.368Z,300
2016-03-26T08:16:25.777Z,300
2016-03-26T08:17:25.810Z,290
2016-03-26T08:18:26.437Z,320
2016-03-26T08:19:25.191Z,295
2016-03-26T08:20:25.865Z,300
2016-03-26T08:21:25.884Z,280
2016-03-26T08:22:25.918Z,295
2016-03-26T08:23:25.920Z,300
2016-03-26T08:24:26.048Z,305
2016-03-26T08:25:26.176Z,295
2016-03-26T08:26:26.210Z,310
2016-03-26T08:27:26.150Z,325
2016-03-26T08:28:26.200Z,335
2016-03-26T08:29:26.765Z,335
2016-03-26T08:30:26.158Z,345
2016-03-26T08:31:26.114Z,300
2016-03-26T08:32:26.789Z,330
2016-03-26T08:33:26.572Z,300
2016-03-26T08:34:26.231Z,325
2016-03-26T08:35:26.202Z,375
2016-03-26T08:36:26.190Z,385
2016-03-26T08:37:26.177Z,360
2016-03-26T08:38:26.194Z,355
2016-03-26T08:39:26.230Z,335
2016-03-26T08:40:26.263Z,340
2016-03-26T08:41:26.301Z,340
2016-03-26T08:42:26.320Z,350
2016-03-26T08:43:26.587Z,380
2016-03-26T08:44:26.340Z,375
2016-03-26T08:45:26.311Z,400
2016-03-26T08:46:32.830Z,345
2016-03-26T08:47:26.379Z,310
2016-03-26T08:48:32.694Z,335
2016-03-26T08:49:26.620Z,435
2016-03-26T08:50:26.544Z,475
2016-03-26T08:51:26.453Z,495
2016-03-26T08:52:32.736Z,490
2016-03-26T08:53:26.474Z,505
2016-03-26T08:54:26.523Z,465
2016-03-26T08:55:26.541Z,440
2016-03-26T08:56:26.529Z,450
2016-03-26T08:57:32.875Z,460
2016-03-26T08:58:26.722Z,435
2016-03-26T08:59:26.647Z,455
2016-03-26T09:00:26.649Z,485
2016-03-26T09:01:26.682Z,480
2016-03-26T09:02:26.701Z,465
2016-03-26T09:03:26.688Z,415
2016-03-26T09:04:39.457Z,410
2016-03-26T09:05:28.162Z,390
2016-03-26T09:06:45.962Z,455
2016-03-26T09:07:26.839Z,420
2016-03-26T09:08:26.811Z,375
2016-03-26T09:09:26.813Z,350
2016-03-26T09:10:39.582Z,425
2016-03-26T09:11:26.882Z,420
2016-03-26T09:12:45.946Z,400
2016-03-26T09:13:39.668Z,365
2016-03-26T09:14:27.076Z,375
2016-03-26T09:15:46.158Z,420
2016-03-26T09:16:27.004Z,345
2016-03-26T09:17:27.023Z,400
2016-03-26T09:18:27.087Z,445
2016-03-26T09:19:39.778Z,500
2016-03-26T09:20:27.047Z,515
2016-03-26T09:21:27.064Z,540
2016-03-26T09:22:33.661Z,490
2016-03-26T09:23:39.883Z,485
2016-03-26T09:24:27.150Z,460
2016-03-26T09:25:27.185Z,510
2016-03-26T09:26:27.234Z,495
2016-03-26T09:27:27.861Z,455
2016-03-26T09:28:27.255Z,425
2016-03-26T09:29:28.680Z,355
2016-03-26T09:30:27.276Z,350
2016-03-26T09:32:30.438Z,375
2016-03-26T09:33:43.238Z,325
2016-03-26T09:34:30.490Z,315
2016-03-26T09:35:30.508Z,425
2016-03-26T09:36:30.543Z,400
2016-03-26T09:37:30.529Z,355
2016-03-26T09:38:30.563Z,365
2016-03-26T09:39:30.941Z,350
2016-03-26T09:40:30.756Z,325
2016-03-26T09:41:30.774Z,305
2016-03-26T09:42:30.793Z,285
2016-03-26T09:43:30.654Z,300
2016-03-26T09:44:32.251Z,310
2016-03-26T09:45:43.488Z,335
2016-03-26T09:46:30.897Z,305
2016-03-26T09:47:30.790Z,265
2016-03-26T09:48:32.183Z,260
2016-03-26T09:49:30.827Z,260
2016-03-26T09:50:30.845Z,230
2016-03-26T09:51:43.739Z,260
2016-03-26T09:52:43.819Z,275
2016-03-26T09:53:43.635Z,270
2016-03-26T09:54:55.903Z,300
2016-03-26T09:55:30.953Z,305
2016-03-26T09:56:50.205Z,300
2016-03-26T09:57:31.005Z,275
2016-03-26T09:59:33.666Z,260
2016-03-26T09:59:46.229Z,260
2016-03-26T10:00:46.247Z,260
2016-03-26T10:01:46.297Z,235
2016-03-26T10:02:46.330Z,235
2016-03-26T10:03:46.959Z,260
2016-03-26T10:04:46.977Z,290
2016-03-26T10:05:46.385Z,280
2016-03-26T10:06:59.091Z,285
2016-03-26T10:07:59.173Z,295
2016-03-26T10:09:05.754Z,265
2016-03-26T10:09:46.443Z,265
2016-03-26T10:10:46.477Z,260
2016-03-26T10:11:46.714Z,255
2016-03-26T10:12:59.249Z,235
2016-03-26T10:13:53.001Z,250
2016-03-26T10:14:46.535Z,245
2016-03-26T10:15:46.570Z,240
2016-03-26T10:16:46.573Z,230
2016-03-26T10:17:52.871Z,235
2016-03-26T10:18:46.655Z,245
2016-03-26T10:19:46.908Z,265
2016-03-26T10:20:47.004Z,270
2016-03-26T10:21:46.867Z,245
2016-03-26T10:22:59.556Z,245
2016-03-26T10:23:53.122Z,225
2016-03-26T10:24:48.234Z,245
2016-03-26T10:25:46.830Z,240
2016-03-26T10:26:47.067Z,255
2016-03-26T10:27:59.586Z,255
2016-03-26T10:28:59.667Z,270
2016-03-26T10:29:59.622Z,305
2016-03-26T10:31:06.110Z,355
2016-03-26T10:31:46.908Z,300
2016-03-26T10:32:47.021Z,245
2016-03-26T10:33:46.977Z,260
2016-03-26T10:34:47.058Z,325
2016-03-26T10:35:47.029Z,360
2016-03-26T10:36:47.626Z,385
2016-03-26T10:37:47.113Z,315
2016-03-26T10:38:59.802Z,385
2016-03-26T10:39:48.493Z,385
2016-03-26T10:40:59.840Z,385
2016-03-26T10:41:47.733Z,435
2016-03-26T10:42:47.881Z,485
2016-03-26T10:43:47.228Z,420
2016-03-26T10:44:47.167Z,390
2016-03-26T10:45:59.967Z,385
2016-03-26T10:46:59.970Z,430
2016-03-26T10:47:47.254Z,485
2016-03-26T10:48:47.272Z,455
2016-03-26T10:50:00.040Z,490
2016-03-26T10:51:00.058Z,515
2016-03-26T10:51:47.328Z,470
2016-03-26T10:53:00.173Z,445
2016-03-26T10:53:47.364Z,505
2016-03-26T10:54:47.428Z,520
2016-03-26T10:55:48.135Z,440
2016-03-26T10:56:48.075Z,410
2016-03-26T10:57:47.484Z,430
2016-03-26T10:58:53.893Z,475
2016-03-26T10:59:47.552Z,475
2016-03-26T11:00:47.523Z,450
2016-03-26T11:01:53.838Z,490
2016-03-26T11:02:47.560Z,480
2016-03-26T11:04:00.343Z,470
2016-03-26T11:04:53.877Z,455
2016-03-26T11:05:47.787Z,460
2016-03-26T11:06:47.665Z,480
2016-03-26T11:07:54.026Z,470
2016-03-26T11:08:47.701Z,460
2016-03-26T11:09:54.048Z,485
2016-03-26T11:10:47.769Z,485
2016-03-26T11:12:00.521Z,510
2016-03-26T11:12:47.852Z,485
2016-03-26T11:14:07.276Z,470
2016-03-26T11:14:47.857Z,490
2016-03-26T11:15:47.860Z,520
2016-03-26T11:16:47.926Z,495
2016-03-26T11:17:47.912Z,510
2016-03-26T11:19:00.743Z,555
2016-03-26T11:19:54.246Z,485
2016-03-26T11:21:07.217Z,460
2016-03-26T11:22:00.798Z,455
2016-03-26T11:22:48.051Z,465
2016-03-26T11:23:48.085Z,475
2016-03-26T11:24:48.134Z,445
2016-03-26T11:26:00.887Z,415
2016-03-26T11:26:48.155Z,365
2016-03-26T11:28:38.692Z,390
2016-03-26T11:28:57.708Z,400
2016-03-26T11:30:10.539Z,395
2016-03-26T11:30:51.385Z,365
2016-03-26T11:31:51.403Z,340
2016-03-26T11:32:51.452Z,310
2016-03-26T11:34:04.127Z,320
2016-03-26T11:34:51.411Z,330
2016-03-26T11:35:51.430Z,320
2016-03-26T11:36:51.588Z,290
2016-03-26T11:37:51.482Z,305
2016-03-26T11:38:51.625Z,285
2016-03-26T11:39:51.535Z,310
2016-03-26T11:40:52.193Z,330
2016-03-26T11:41:51.602Z,295
2016-03-26T11:42:51.729Z,290
2016-03-26T11:43:51.623Z,265
2016-03-26T11:44:51.859Z,290
2016-03-26T11:45:51.676Z,295
2016-03-26T11:46:52.303Z,310
2016-03-26T11:48:04.603Z,300
2016-03-26T11:48:51.761Z,310
2016-03-26T11:50:10.984Z,290
2016-03-26T11:50:58.173Z,285
2016-03-26T11:51:51.832Z,275
2016-03-26T11:52:53.272Z,310
2016-03-26T11:54:04.681Z,275
2016-03-26T11:54:51.886Z,285
2016-03-26T11:56:11.125Z,275
2016-03-26T11:56:51.924Z,255
2016-03-26T11:57:58.223Z,255
2016-03-26T11:58:51.960Z,280
2016-03-26T12:00:11.214Z,265
2016-03-26T12:00:52.044Z,265
2016-03-26T12:01:52.047Z,250
2016-03-26T12:02:52.158Z,265
2016-03-26T12:03:58.505Z,270
2016-03-26T12:04:52.304Z,260
2016-03-26T12:05:53.557Z,265
2016-03-26T12:07:04.904Z,280
2016-03-26T12:07:52.157Z,280
2016-03-26T12:09:04.940Z,260
2016-03-26T12:09:52.224Z,280
2016-03-26T12:10:52.227Z,260
2016-03-26T12:11:52.277Z,280
2016-03-26T12:13:05.029Z,275
2016-03-26T12:13:52.312Z,275
2016-03-26T12:15:05.081Z,265
2016-03-26T12:15:51.740Z,285
2016-03-26T12:16:52.384Z,330
2016-03-26T12:17:58.777Z,305
2016-03-26T12:18:53.842Z,290
2016-03-26T12:19:52.454Z,275
2016-03-26T12:20:52.504Z,270
2016-03-26T12:21:53.070Z,275
2016-03-26T12:22:52.540Z,290
2016-03-26T12:23:52.543Z,315
2016-03-26T12:24:53.155Z,295
2016-03-26T12:25:53.220Z,275
2016-03-26T12:26:52.722Z,300
2016-03-26T12:27:53.258Z,335
2016-03-26T12:28:52.650Z,345
2016-03-26T12:29:52.684Z,300
2016-03-26T12:31:05.436Z,270
2016-03-26T12:32:05.440Z,265
2016-03-26T12:33:11.941Z,255
2016-03-26T12:34:11.961Z,245
2016-03-26T12:34:52.791Z,245
2016-03-26T12:35:52.810Z,255
2016-03-26T12:36:59.109Z,270
2016-03-26T12:37:53.253Z,265
2016-03-26T12:38:59.177Z,265
2016-03-26T12:39:53.040Z,260
2016-03-26T12:41:05.651Z,255
2016-03-26T12:41:52.966Z,255
2016-03-26T12:42:52.954Z,265
2016-03-26T12:43:52.988Z,270
2016-03-26T12:44:53.006Z,260
2016-03-26T12:45:59.306Z,260
2016-03-26T12:46:53.184Z,245
2016-03-26T12:47:53.092Z,245
2016-03-26T12:49:05.985Z,250
2016-03-26T12:49:53.145Z,255
2016-03-26T12:50:53.209Z,255
2016-03-26T12:51:53.181Z,285
2016-03-26T12:52:53.246Z,270
2016-03-26T12:54:06.389Z,255
2016-03-26T12:54:53.251Z,245
2016-03-26T12:56:12.458Z,265
2016-03-26T12:56:59.569Z,235
2016-03-26T12:58:50.450Z,235
2016-03-26T12:59:15.919Z,245
2016-03-26T13:00:03.094Z,245
2016-03-26T13:01:15.784Z,235
2016-03-26T13:02:03.317Z,250
2016-03-26T13:03:03.101Z,260
2016-03-26T13:04:03.229Z,265
2016-03-26T13:05:03.622Z,245
2016-03-26T13:06:03.203Z,250
2016-03-26T13:07:03.222Z,240
2016-03-26T13:08:03.271Z,240
2016-03-26T13:09:03.289Z,230
2016-03-26T13:10:03.260Z,230
2016-03-26T13:11:03.327Z,250
2016-03-26T13:12:03.296Z,240
2016-03-26T13:13:09.582Z,220
2016-03-26T13:14:09.646Z,220
2016-03-26T13:15:16.415Z,225
2016-03-26T13:16:03.401Z,225
2016-03-26T13:17:03.560Z,235
2016-03-26T13:18:03.438Z,245
2016-03-26T13:19:03.488Z,220
2016-03-26T13:20:16.225Z,215
2016-03-26T13:21:03.540Z,210
2016-03-26T13:22:03.543Z,215
2016-03-26T13:23:03.545Z,215
2016-03-26T13:24:09.876Z,215
2016-03-26T13:25:04.239Z,210
2016-03-26T13:26:16.444Z,205
2016-03-26T13:27:03.666Z,200
2016-03-26T13:28:03.669Z,200
2016-03-26T13:29:16.687Z,200
2016-03-26T13:30:04.314Z,195
2016-03-26T13:31:16.489Z,195
2016-03-26T13:32:03.758Z,195
2016-03-26T13:33:23.013Z,195
2016-03-26T13:34:10.044Z,195
2016-03-26T13:35:04.452Z,200
2016-03-26T13:36:16.612Z,210
2016-03-26T13:37:11.583Z,215
2016-03-26T13:38:03.867Z,205
2016-03-26T13:39:03.338Z,200
2016-03-26T13:40:03.935Z,200
2016-03-26T13:41:16.703Z,195
2016-03-26T13:42:03.971Z,195
2016-03-26T13:43:23.430Z,205
2016-03-26T13:44:04.024Z,220
2016-03-26T13:45:04.073Z,230
2016-03-26T13:46:04.154Z,220
2016-03-26T13:47:04.095Z,205
2016-03-26T13:48:04.394Z,215
2016-03-26T13:49:04.162Z,205
2016-03-26T13:50:04.321Z,200
2016-03-26T13:51:04.199Z,200
2016-03-26T13:52:04.248Z,200
2016-03-26T13:53:16.966Z,200
2016-03-26T13:54:16.985Z,205
2016-03-26T13:55:04.285Z,205
2016-03-26T13:56:04.380Z,200
2016-03-26T13:57:04.321Z,200
2016-03-26T13:58:04.355Z,200
2016-03-26T13:59:04.513Z,200
2016-03-26T14:00:10.876Z,205
2016-03-26T14:01:04.675Z,205
2016-03-26T14:02:17.178Z,215
2016-03-26T14:03:04.493Z,205
2016-03-26T14:04:04.527Z,200
2016-03-26T14:05:10.764Z,200
2016-03-26T14:06:04.548Z,205
2016-03-26T14:07:04.597Z,260
2016-03-26T14:08:04.570Z,265
2016-03-26T14:09:17.322Z,220
2016-03-26T14:10:04.621Z,210
2016-03-26T14:11:23.845Z,205
2016-03-26T14:12:04.673Z,210
2016-03-26T14:13:04.691Z,230
2016-03-26T14:14:17.444Z,255
2016-03-26T14:15:04.745Z,265
2016-03-26T14:16:17.591Z,290